Time;durP1;ratioP1;P1;durP2;ratioP2;P2;SDS_P1;SDS_P2;PMS_P1;PMS_P2;Temp;Humidity;BMP_temperature;BMP_pressure;BME280_temperature;BME280_humidity;BME280_pressure;Samples;Min_cycle;Max_cycle;Signal;HPM_P1;HPM_P2
2023/12/31 00:01:54;;;;;;;30.10;14.13;;;2.20;99.90;;;;;;2584981;54;20042;31
2023/12/31 00:04:29;;;;;;;29.02;13.38;;;2.10;99.90;;;;;;2585005;54;20049;31
2023/12/31 00:07:05;;;;;;;35.88;13.48;;;2.20;99.90;;;;;;2585461;54;22433;31
2023/12/31 00:09:38;;;;;;;29.87;15.60;;;2.20;99.90;;;;;;2584905;54;20031;31
2023/12/31 00:12:14;;;;;;;31.90;13.75;;;2.20;99.90;;;;;;2584909;54;20968;31
2023/12/31 00:14:47;;;;;;;28.40;13.93;;;2.20;99.90;;;;;;2584724;54;20092;31
2023/12/31 00:17:22;;;;;;;35.30;15.90;;;2.20;99.90;;;;;;2584742;54;20943;31
2023/12/31 00:19:56;;;;;;;36.33;17.77;;;2.20;99.90;;;;;;2584821;54;20853;31
2023/12/31 00:22:34;;;;;;;33.63;16.10;;;2.20;99.90;;;;;;2584886;54;20053;31
2023/12/31 00:25:08;;;;;;;37.73;17.83;;;2.20;99.90;;;;;;2603040;47;20049;31
2023/12/31 00:27:43;;;;;;;33.27;17.33;;;2.20;99.90;;;;;;2585134;54;20247;31
2023/12/31 00:30:18;;;;;;;41.30;18.27;;;2.20;99.90;;;;;;2584662;54;20030;31
2023/12/31 00:32:53;;;;;;;36.90;17.85;;;2.10;99.90;;;;;;2584634;54;20963;31
2023/12/31 00:35:29;;;;;;;35.17;17.87;;;2.00;99.90;;;;;;2602936;47;20148;31
2023/12/31 00:38:04;;;;;;;41.90;16.90;;;2.10;99.90;;;;;;2603299;47;20717;31
2023/12/31 00:40:38;;;;;;;36.90;16.85;;;2.10;99.90;;;;;;2585009;54;20030;31
2023/12/31 00:43:11;;;;;;;42.07;17.90;;;2.10;99.90;;;;;;2585000;54;20918;31
2023/12/31 00:45:46;;;;;;;36.40;16.48;;;2.00;99.90;;;;;;2603316;47;21241;31
2023/12/31 00:48:19;;;;;;;40.77;19.03;;;2.00;99.90;;;;;;2584825;54;20089;31
2023/12/31 00:50:54;;;;;;;42.60;17.65;;;1.90;99.90;;;;;;2584432;54;20265;31
2023/12/31 00:53:30;;;;;;;38.72;18.45;;;1.90;99.90;;;;;;2585506;54;20278;31
2023/12/31 00:56:03;;;;;;;36.75;17.70;;;1.80;99.90;;;;;;2585541;54;20803;31
2023/12/31 00:58:36;;;;;;;41.60;20.03;;;1.90;99.90;;;;;;2585457;54;20927;31
2023/12/31 01:01:10;;;;;;;45.38;19.92;;;1.90;99.90;;;;;;2585663;54;20052;31
2023/12/31 01:03:45;;;;;;;37.90;17.65;;;1.90;99.90;;;;;;2585539;54;20937;31
2023/12/31 01:06:18;;;;;;;43.92;20.08;;;1.90;99.90;;;;;;2585599;54;20795;31
2023/12/31 01:08:54;;;;;;;46.65;21.35;;;2.00;99.90;;;;;;2585700;54;20027;31
2023/12/31 01:11:29;;;;;;;43.13;21.23;;;2.00;99.90;;;;;;2585686;54;20148;31
2023/12/31 01:14:03;;;;;;;42.30;19.90;;;2.00;99.90;;;;;;2585210;54;21104;31
2023/12/31 01:16:39;;;;;;;42.20;20.75;;;2.00;99.90;;;;;;2585496;54;19935;31
2023/12/31 01:19:16;;;;;;;43.83;20.30;;;2.10;99.90;;;;;;2585661;54;20056;31
2023/12/31 01:21:49;;;;;;;43.40;20.55;;;2.00;99.90;;;;;;2585583;54;20962;31
2023/12/31 01:24:25;;;;;;;44.53;20.05;;;2.00;99.90;;;;;;2585629;54;20916;31
2023/12/31 01:26:59;;;;;;;44.53;20.92;;;2.00;99.90;;;;;;2585481;54;20057;31
2023/12/31 01:29:34;;;;;;;42.83;20.42;;;2.00;99.90;;;;;;2603552;46;20916;31
2023/12/31 01:32:09;;;;;;;47.95;22.13;;;1.90;99.90;;;;;;2585536;54;20801;31
2023/12/31 01:34:44;;;;;;;40.57;20.17;;;1.90;99.90;;;;;;2585631;54;20955;31
2023/12/31 01:37:19;;;;;;;44.00;20.10;;;1.90;99.90;;;;;;2585789;54;20948;31
2023/12/31 01:39:57;;;;;;;39.58;20.02;;;1.90;99.90;;;;;;2603793;46;20925;31
2023/12/31 01:42:30;;;;;;;47.33;21.50;;;1.90;99.90;;;;;;2585537;54;20031;31
2023/12/31 01:45:04;;;;;;;50.10;21.80;;;1.90;99.90;;;;;;2585404;54;20030;31
2023/12/31 01:47:38;;;;;;;48.08;20.90;;;1.90;99.90;;;;;;2585125;54;20768;31
2023/12/31 01:50:13;;;;;;;46.80;21.05;;;1.90;99.90;;;;;;2585546;54;20058;31
2023/12/31 01:52:52;;;;;;;41.33;20.42;;;1.90;99.90;;;;;;2585530;54;20026;31
2023/12/31 01:55:30;;;;;;;42.88;20.08;;;1.80;99.90;;;;;;2585688;54;20934;31
2023/12/31 02:01:28;;;;;;;49.50;20.83;;;1.70;99.90;;;;;;2585117;54;20858;31
2023/12/31 02:04:14;;;;;;;56.05;24.85;;;1.70;99.90;;;;;;2585406;54;20026;31
2023/12/31 02:06:56;;;;;;;55.13;30.37;;;1.70;99.90;;;;;;2585131;54;20030;31
2023/12/31 02:09:31;;;;;;;59.10;31.80;;;1.70;99.90;;;;;;2585453;54;21263;31
2023/12/31 02:12:15;;;;;;;68.80;33.55;;;1.70;99.90;;;;;;2683468;39;22345;31
2023/12/31 02:15:01;;;;;;;49.20;24.30;;;1.60;99.90;;;;;;2702060;39;21054;31
2023/12/31 02:17:42;;;;;;;48.40;22.02;;;1.60;99.90;;;;;;2603587;46;20823;31
2023/12/31 02:20:19;;;;;;;46.95;22.00;;;1.60;99.90;;;;;;2585512;54;20038;31
2023/12/31 02:22:54;;;;;;;57.15;23.80;;;1.60;99.90;;;;;;2585503;54;20053;31
2023/12/31 02:25:31;;;;;;;46.25;21.60;;;1.60;99.90;;;;;;2585492;54;19935;31
2023/12/31 02:28:10;;;;;;;47.75;23.40;;;1.60;99.90;;;;;;2585583;54;20988;31
2023/12/31 02:30:45;;;;;;;45.73;21.23;;;1.60;99.90;;;;;;2585578;54;20912;31
2023/12/31 02:33:20;;;;;;;51.85;24.25;;;1.60;99.90;;;;;;2585252;54;20026;31
2023/12/31 02:35:56;;;;;;;41.03;21.90;;;1.50;99.90;;;;;;2585518;54;19939;31
2023/12/31 02:38:30;;;;;;;42.40;21.10;;;1.50;99.90;;;;;;2585505;54;20810;31
2023/12/31 02:41:05;;;;;;;59.47;26.08;;;1.50;99.90;;;;;;2585457;54;20037;31
2023/12/31 02:43:41;;;;;;;34.90;19.40;;;1.60;99.90;;;;;;2585424;54;20034;31
2023/12/31 02:46:13;;;;;;;;;;;1.60;99.90;;;;;;2585451;54;20080;31
2023/12/31 02:48:48;;;;;;;51.60;23.98;;;1.50;99.90;;;;;;2603693;46;20786;31
2023/12/31 02:51:23;;;;;;;38.70;19.70;;;1.50;99.90;;;;;;2585257;54;20112;31
2023/12/31 02:53:58;;;;;;;39.80;20.17;;;1.50;99.90;;;;;;2585376;54;20026;31
2023/12/31 02:56:30;;;;;;;48.75;21.25;;;1.50;99.90;;;;;;2603640;46;20037;31
2023/12/31 02:59:05;;;;;;;45.20;20.25;;;1.50;99.90;;;;;;2604120;46;21050;31
2023/12/31 03:01:40;;;;;;;51.83;24.33;;;1.50;99.90;;;;;;2603702;46;20050;31
2023/12/31 03:04:15;;;;;;;49.20;21.40;;;1.50;99.90;;;;;;2585490;54;21212;31
2023/12/31 03:06:51;;;;;;;48.50;21.85;;;1.50;99.90;;;;;;2585299;54;20072;31
2023/12/31 03:09:23;;;;;;;;;;;1.50;99.90;;;;;;2603659;46;20053;31
2023/12/31 03:11:59;;;;;;;41.75;19.42;;;1.50;99.90;;;;;;2603574;46;19942;31
2023/12/31 03:14:35;;;;;;;43.55;21.17;;;1.40;99.90;;;;;;2585282;54;20050;31
2023/12/31 03:17:12;;;;;;;52.90;21.95;;;1.40;99.90;;;;;;2754051;31;21170;31
2023/12/31 03:19:45;;;;;;;39.65;21.27;;;1.40;99.90;;;;;;2603773;46;20033;31
2023/12/31 03:22:18;;;;;;;45.60;20.00;;;1.40;99.90;;;;;;2683481;39;21054;31
2023/12/31 03:25:06;;;;;;;39.97;18.88;;;1.40;99.90;;;;;;2585063;54;20031;31
2023/12/31 03:27:40;;;;;;;38.10;19.95;;;1.30;99.90;;;;;;2585123;54;20031;31
2023/12/31 03:30:19;;;;;;;35.88;17.67;;;1.40;99.90;;;;;;2603812;46;20029;31
2023/12/31 03:32:54;;;;;;;43.45;20.65;;;1.40;99.90;;;;;;2585411;54;20965;31
2023/12/31 03:35:27;;;;;;;46.65;22.13;;;1.30;99.90;;;;;;2603681;46;20904;31
2023/12/31 03:38:00;;;;;;;48.07;23.73;;;1.30;99.90;;;;;;2585250;54;20026;31
2023/12/31 03:40:33;;;;;;;37.43;18.57;;;1.30;99.90;;;;;;2584732;54;20053;31
2023/12/31 03:43:08;;;;;;;42.90;20.98;;;1.30;99.90;;;;;;2585227;54;20153;31
2023/12/31 03:45:46;;;;;;;47.45;23.40;;;1.30;99.90;;;;;;2584674;54;19993;31
2023/12/31 03:48:21;;;;;;;54.87;23.87;;;1.30;99.90;;;;;;2585200;54;20031;31
2023/12/31 03:50:56;;;;;;;46.50;24.42;;;1.10;99.90;;;;;;2603246;46;21231;31
2023/12/31 03:53:29;;;;;;;47.30;24.53;;;1.10;99.90;;;;;;2603400;46;20935;31
2023/12/31 03:56:02;;;;;;;52.80;25.70;;;1.10;99.90;;;;;;2585371;54;22231;31
2023/12/31 03:58:35;;;;;;;52.60;26.10;;;1.10;99.90;;;;;;2603635;46;20064;31
2023/12/31 04:01:13;;;;;;;52.90;24.50;;;1.10;99.90;;;;;;2585095;54;20977;31
2023/12/31 04:03:46;;;;;;;47.60;24.27;;;1.00;99.90;;;;;;2585120;54;20026;31
2023/12/31 04:06:19;;;;;;;49.70;24.30;;;1.00;99.90;;;;;;2598637;39;20927;31
2023/12/31 04:08:54;;;;;;;46.67;24.45;;;1.00;99.90;;;;;;2584639;54;20983;31
2023/12/31 04:11:27;;;;;;;53.35;24.65;;;0.90;99.90;;;;;;2603045;47;20034;31
2023/12/31 04:14:00;;;;;;;59.05;25.95;;;1.00;99.90;;;;;;2585163;54;20026;31
2023/12/31 04:16:38;;;;;;;55.20;26.70;;;0.90;99.90;;;;;;2585079;54;19934;31
2023/12/31 04:19:14;;;;;;;48.00;26.02;;;0.90;99.90;;;;;;2585003;54;20030;31
2023/12/31 04:21:49;;;;;;;47.30;22.83;;;0.90;99.90;;;;;;2584836;54;20925;31
2023/12/31 04:24:22;;;;;;;47.95;25.20;;;0.90;99.90;;;;;;2603474;47;20052;31
2023/12/31 04:26:56;;;;;;;51.35;26.70;;;0.90;99.90;;;;;;2585265;54;20038;31
2023/12/31 04:29:30;;;;;;;74.20;38.35;;;0.90;99.90;;;;;;2585932;54;20026;31
2023/12/31 04:32:07;;;;;;;53.70;24.80;;;0.90;99.90;;;;;;2585908;54;20026;31
2023/12/31 04:34:42;;;;;;;75.70;35.22;;;0.90;99.90;;;;;;2585638;54;20294;31
2023/12/31 04:37:15;;;;;;;71.10;34.85;;;0.90;99.90;;;;;;2585466;54;20128;31
2023/12/31 04:39:48;;;;;;;78.25;34.38;;;0.90;99.90;;;;;;2585759;54;20377;31
2023/12/31 04:42:21;;;;;;;68.35;28.35;;;0.90;99.90;;;;;;2604123;46;20026;31
2023/12/31 04:44:54;;;;;;;78.00;36.80;;;0.90;99.90;;;;;;2585445;54;20119;31
2023/12/31 04:47:29;;;;;;;60.80;28.80;;;0.90;99.90;;;;;;2702162;39;22291;31
2023/12/31 04:50:04;;;;;;;65.80;30.75;;;0.90;99.90;;;;;;2586031;54;20155;31
2023/12/31 04:52:41;;;;;;;63.55;30.27;;;0.80;99.90;;;;;;2585829;54;20207;31
2023/12/31 04:55:14;;;;;;;51.80;25.85;;;0.80;99.90;;;;;;2585973;54;20797;31
2023/12/31 04:57:47;;;;;;;55.87;24.97;;;0.80;99.90;;;;;;2604643;46;20081;31
2023/12/31 05:00:22;;;;;;;54.50;26.10;;;0.80;99.90;;;;;;2585972;54;20078;31
2023/12/31 05:02:59;;;;;;;59.43;30.43;;;0.80;99.90;;;;;;2585715;54;20926;31
2023/12/31 05:05:32;;;;;;;65.20;29.30;;;0.80;99.90;;;;;;2702475;39;21065;31
2023/12/31 05:08:05;;;;;;;61.50;25.83;;;0.80;99.90;;;;;;2684021;39;20981;31
2023/12/31 05:10:39;;;;;;;78.15;32.60;;;0.80;99.90;;;;;;2585829;54;20053;31
2023/12/31 05:13:14;;;;;;;94.45;35.97;;;0.80;99.90;;;;;;2585670;54;20187;31
2023/12/31 05:15:47;;;;;;;180.60;58.33;;;0.80;99.90;;;;;;2586214;54;19954;31
2023/12/31 05:18:23;;;;;;;213.15;75.55;;;0.80;99.90;;;;;;2585739;54;20023;31
2023/12/31 05:20:56;;;;;;;307.10;109.68;;;0.80;99.90;;;;;;2683694;39;21128;31
2023/12/31 05:23:30;;;;;;;109.50;47.70;;;0.90;99.90;;;;;;2585602;54;19946;31
2023/12/31 05:26:03;;;;;;;68.28;35.25;;;0.90;99.90;;;;;;2585916;54;20772;31
2023/12/31 05:28:36;;;;;;;69.55;38.30;;;0.80;99.90;;;;;;2585535;54;20080;31
2023/12/31 05:31:14;;;;;;;61.45;34.35;;;0.80;99.90;;;;;;2585208;54;20026;31
2023/12/31 05:33:50;;;;;;;67.15;35.90;;;0.80;99.90;;;;;;2683679;39;21214;31
2023/12/31 05:36:24;;;;;;;82.10;45.77;;;0.80;99.90;;;;;;2585634;54;20030;31
2023/12/31 05:38:57;;;;;;;61.55;32.90;;;0.80;99.90;;;;;;2683289;39;22620;31
2023/12/31 05:41:32;;;;;;;68.30;37.30;;;0.90;99.90;;;;;;2585783;54;20999;31
2023/12/31 05:44:05;;;;;;;51.60;28.95;;;0.90;99.90;;;;;;2603650;46;20093;31
2023/12/31 05:46:38;;;;;;;42.50;22.60;;;0.90;99.90;;;;;;2585697;54;20033;31
2023/12/31 05:49:14;;;;;;;81.30;38.10;;;0.90;99.90;;;;;;2585327;54;20990;31
2023/12/31 05:51:47;;;;;;;53.03;22.90;;;0.90;99.90;;;;;;2604169;46;20030;31
2023/12/31 05:54:22;;;;;;;57.25;27.20;;;0.80;99.90;;;;;;2585485;54;20802;31
2023/12/31 05:56:56;;;;;;;47.70;23.40;;;0.80;99.90;;;;;;2585786;54;20119;31
2023/12/31 05:59:31;;;;;;;44.77;22.83;;;0.80;99.90;;;;;;2585627;54;20956;31
2023/12/31 06:02:05;;;;;;;48.35;21.52;;;0.80;99.90;;;;;;2585520;54;20045;31
2023/12/31 06:04:41;;;;;;;67.20;26.50;;;0.80;99.90;;;;;;2604415;46;20923;31
2023/12/31 06:07:16;;;;;;;58.13;23.48;;;0.80;99.90;;;;;;2604280;46;20945;31
2023/12/31 06:09:50;;;;;;;;;;;0.80;99.90;;;;;;2585775;54;20053;31
2023/12/31 06:12:23;;;;;;;57.65;26.65;;;0.70;99.90;;;;;;2604025;46;19934;31
2023/12/31 06:14:56;;;;;;;44.20;22.73;;;0.70;99.90;;;;;;2585571;54;20950;31
2023/12/31 06:17:30;;;;;;;45.37;23.57;;;0.70;99.90;;;;;;2585668;54;20049;31
2023/12/31 06:20:06;;;;;;;56.60;30.80;;;0.70;99.90;;;;;;2585495;54;20027;31
2023/12/31 06:22:39;;;;;;;43.63;23.27;;;0.60;99.90;;;;;;2585733;54;22484;31
2023/12/31 06:25:12;;;;;;;40.93;20.93;;;0.60;99.90;;;;;;2585487;54;20870;31
2023/12/31 06:27:50;;;;;;;41.65;21.10;;;0.60;99.90;;;;;;2585600;54;20030;31
2023/12/31 06:30:24;;;;;;;46.70;19.10;;;0.60;99.90;;;;;;2585493;54;21029;31
2023/12/31 06:32:57;;;;;;;39.85;20.05;;;0.60;99.90;;;;;;2585502;54;20901;31
2023/12/31 06:35:32;;;;;;;35.80;17.95;;;0.60;99.90;;;;;;2585595;54;20933;31
2023/12/31 06:38:07;;;;;;;35.30;18.30;;;0.60;99.90;;;;;;2585647;54;20030;31
2023/12/31 06:40:40;;;;;;;35.13;18.10;;;0.60;99.90;;;;;;2585454;54;20063;31
2023/12/31 06:43:13;;;;;;;42.10;19.85;;;0.60;99.90;;;;;;2603720;46;20030;31
2023/12/31 06:45:46;;;;;;;36.50;17.75;;;0.60;99.90;;;;;;2605729;39;20967;31
2023/12/31 06:48:19;;;;;;;39.20;17.80;;;0.60;99.90;;;;;;2585674;54;20031;31
2023/12/31 06:50:54;;;;;;;35.40;17.50;;;0.60;99.90;;;;;;2604200;46;20974;31
2023/12/31 06:53:29;;;;;;;30.53;17.07;;;0.60;99.90;;;;;;2585407;54;20057;31
2023/12/31 06:56:06;;;;;;;41.08;17.40;;;0.60;99.90;;;;;;2642829;39;22321;31
2023/12/31 06:58:39;;;;;;;35.50;16.30;;;0.60;99.90;;;;;;2585544;54;20037;31
2023/12/31 07:01:13;;;;;;;39.60;17.50;;;0.60;99.90;;;;;;2585402;54;20862;31
2023/12/31 07:03:46;;;;;;;48.63;21.47;;;0.60;99.90;;;;;;2585686;54;20148;31
2023/12/31 07:06:23;;;;;;;358.38;125.50;;;0.60;99.90;;;;;;2585211;54;20239;31
2023/12/31 07:08:58;;;;;;;424.03;154.50;;;0.60;99.90;;;;;;2585238;54;21058;31
2023/12/31 07:11:31;;;;;;;114.72;53.72;;;0.60;99.90;;;;;;2585171;54;20813;31
2023/12/31 07:14:04;;;;;;;52.35;26.77;;;0.60;99.90;;;;;;2603604;46;20966;31
2023/12/31 07:16:37;;;;;;;43.15;21.90;;;0.60;99.90;;;;;;2585344;54;20776;31
2023/12/31 07:19:10;;;;;;;31.63;17.93;;;0.60;99.90;;;;;;2603629;46;21332;31
2023/12/31 07:21:47;;;;;;;31.48;17.27;;;0.70;99.90;;;;;;2585418;54;20026;31
2023/12/31 07:24:21;;;;;;;42.50;18.80;;;0.70;99.90;;;;;;2585371;54;20957;31
2023/12/31 07:26:54;;;;;;;31.45;16.50;;;0.70;99.90;;;;;;2585044;54;19958;31
2023/12/31 07:29:30;;;;;;;35.35;17.15;;;0.70;99.90;;;;;;2584839;54;20084;31
2023/12/31 07:32:05;;;;;;;32.75;17.25;;;0.80;99.90;;;;;;2585412;54;20026;31
2023/12/31 07:34:40;;;;;;;37.37;17.80;;;0.80;99.90;;;;;;2584959;54;20928;31
2023/12/31 07:37:16;;;;;;;38.22;18.63;;;0.90;99.90;;;;;;2584849;54;20144;31
2023/12/31 07:39:49;;;;;;;35.90;17.40;;;0.90;99.90;;;;;;2585366;54;21353;31
2023/12/31 07:42:24;;;;;;;35.35;17.38;;;1.00;99.90;;;;;;2585302;54;20269;31
2023/12/31 07:44:59;;;;;;;32.65;15.90;;;1.00;99.90;;;;;;2585357;54;20926;31
2023/12/31 07:47:35;;;;;;;33.05;16.27;;;1.10;99.90;;;;;;2683795;39;22208;31
2023/12/31 07:50:08;;;;;;;30.90;15.98;;;1.20;99.90;;;;;;2585016;54;20048;31
2023/12/31 07:52:46;;;;;;;26.00;14.70;;;1.30;99.90;;;;;;2585395;54;20895;31
2023/12/31 07:55:19;;;;;;;28.90;15.27;;;1.40;99.90;;;;;;2585307;54;20030;31
2023/12/31 07:57:54;;;;;;;29.33;14.27;;;1.50;99.90;;;;;;2585198;54;20026;31
2023/12/31 08:00:26;;;;;;;28.80;15.20;;;1.60;99.90;;;;;;2585084;54;20034;31
2023/12/31 08:02:59;;;;;;;30.55;14.60;;;1.70;99.90;;;;;;2603432;47;20030;31
2023/12/31 08:05:34;;;;;;;27.30;13.90;;;1.80;99.90;;;;;;2585189;54;20057;31
2023/12/31 08:08:12;;;;;;;30.20;14.73;;;1.90;99.90;;;;;;2683366;39;22426;31
2023/12/31 08:10:47;;;;;;;30.80;16.10;;;2.10;99.90;;;;;;2585361;54;20026;31
2023/12/31 08:13:22;;;;;;;30.80;14.33;;;2.20;99.90;;;;;;2603344;47;20809;31
2023/12/31 08:15:57;;;;;;;28.05;13.85;;;2.30;99.90;;;;;;2585244;54;20895;31
2023/12/31 08:18:33;;;;;;;28.00;14.33;;;2.40;99.90;;;;;;2603376;47;20096;31
2023/12/31 08:21:05;;;;;;;27.50;14.20;;;2.40;99.90;;;;;;2584958;54;20119;31
2023/12/31 08:23:42;;;;;;;23.35;13.10;;;2.60;99.90;;;;;;2585086;54;20904;31
2023/12/31 08:26:21;;;;;;;29.30;13.32;;;2.70;99.90;;;;;;2585321;54;20022;31
2023/12/31 08:28:56;;;;;;;26.70;13.15;;;2.80;99.90;;;;;;2585024;54;20082;31
2023/12/31 08:31:29;;;;;;;28.90;14.48;;;2.90;99.90;;;;;;2603516;47;20060;31
2023/12/31 08:34:02;;;;;;;26.03;14.57;;;3.00;99.90;;;;;;2584838;54;21917;31
2023/12/31 08:36:37;;;;;;;26.80;13.90;;;3.20;99.90;;;;;;2603466;47;21141;31
2023/12/31 08:39:13;;;;;;;30.07;14.80;;;3.40;99.90;;;;;;2584530;54;20933;31
2023/12/31 08:41:50;;;;;;;27.40;14.85;;;3.60;99.90;;;;;;2584863;54;20030;31
2023/12/31 08:44:24;;;;;;;26.17;14.73;;;3.70;99.90;;;;;;2584868;54;20934;31
2023/12/31 08:46:59;;;;;;;28.30;14.10;;;3.90;99.90;;;;;;2584970;54;21021;31
2023/12/31 08:49:34;;;;;;;30.23;15.53;;;4.00;99.90;;;;;;2584729;54;20116;31
2023/12/31 08:52:10;;;;;;;29.67;14.20;;;4.10;99.90;;;;;;2584671;54;20317;31
2023/12/31 08:54:48;;;;;;;21.33;11.27;;;4.20;99.90;;;;;;2584989;54;20985;31
2023/12/31 08:57:22;;;;;;;24.65;12.50;;;4.20;99.90;;;;;;2585057;54;20061;31
2023/12/31 08:59:57;;;;;;;28.63;13.90;;;4.30;99.90;;;;;;2584745;54;20808;31
2023/12/31 09:02:32;;;;;;;28.10;14.48;;;4.40;99.90;;;;;;2584903;54;20770;31
2023/12/31 09:05:08;;;;;;;26.47;13.00;;;4.50;99.90;;;;;;2603183;47;20771;31
2023/12/31 09:07:42;;;;;;;21.00;12.25;;;4.80;99.90;;;;;;2682745;39;22519;31
2023/12/31 09:10:20;;;;;;;27.40;12.85;;;4.90;99.90;;;;;;2584825;54;20057;31
2023/12/31 09:12:53;;;;;;;23.90;13.07;;;5.00;99.90;;;;;;2585102;54;20050;31
2023/12/31 09:15:26;;;;;;;24.20;12.70;;;5.10;99.90;;;;;;2585636;54;20966;31
2023/12/31 09:18:01;;;;;;;21.45;12.43;;;5.20;99.90;;;;;;2585624;54;20035;31
2023/12/31 09:20:36;;;;;;;20.52;11.38;;;5.30;99.90;;;;;;2585503;54;20035;31
2023/12/31 09:23:11;;;;;;;24.65;11.60;;;5.40;99.90;;;;;;2585579;54;20836;31
2023/12/31 09:25:47;;;;;;;22.73;11.52;;;5.50;99.90;;;;;;2585495;54;20930;31
2023/12/31 09:28:20;;;;;;;20.60;11.95;;;5.70;99.90;;;;;;2702096;39;21078;31
2023/12/31 09:30:58;;;;;;;23.20;12.40;;;5.70;99.90;;;;;;2585654;54;20048;31
2023/12/31 09:36:30;;;;;;;22.85;11.27;;;5.80;99.90;;;;;;2585638;54;20030;31
2023/12/31 09:39:18;;;;;;;20.05;11.40;;;5.80;99.90;;;;;;2585645;54;20979;31
2023/12/31 09:42:01;;;;;;;18.85;10.90;;;5.90;99.90;;;;;;2585249;54;20918;31
2023/12/31 09:50:12;;;;;;;19.70;10.20;;;6.00;99.90;;;;;;2585617;54;21014;31
2023/12/31 09:52:49;;;;;;;20.20;10.70;;;6.10;99.90;;;;;;2585182;54;20056;31
2023/12/31 09:55:24;;;;;;;23.65;11.32;;;6.20;99.90;;;;;;2603699;46;20917;31
2023/12/31 09:58:03;;;;;;;23.55;11.55;;;6.30;99.90;;;;;;2604166;46;21107;31
2023/12/31 10:00:36;;;;;;;22.77;10.73;;;6.30;99.90;;;;;;2585306;54;20801;31
2023/12/31 10:03:09;;;;;;;19.40;11.00;;;6.30;99.90;;;;;;2603375;46;21009;31
2023/12/31 10:05:45;;;;;;;21.05;11.55;;;6.30;99.90;;;;;;2585094;54;20081;31
2023/12/31 10:08:18;;;;;;;21.90;10.20;;;6.40;99.90;;;;;;2603926;46;20031;31
2023/12/31 10:10:53;;;;;;;22.50;11.30;;;6.50;99.90;;;;;;2604189;46;20050;31
2023/12/31 10:13:30;;;;;;;20.35;11.15;;;6.60;99.90;;;;;;2585291;54;20959;31
2023/12/31 10:16:13;;;;;;;24.57;12.33;;;6.60;99.90;;;;;;2584880;54;21002;31
2023/12/31 10:18:47;;;;;;;30.27;17.98;;;6.60;99.90;;;;;;2604012;46;20022;31
2023/12/31 10:21:20;;;;;;;27.33;16.63;;;6.50;99.90;;;;;;2585462;54;20026;31
2023/12/31 10:23:53;;;;;;;24.00;13.18;;;6.50;99.90;;;;;;2584879;54;20746;31
2023/12/31 10:26:29;;;;;;;20.90;11.40;;;6.50;99.90;;;;;;2585286;54;20084;31
2023/12/31 10:29:05;;;;;;;20.93;11.27;;;6.50;99.90;;;;;;2584943;54;20034;31
2023/12/31 10:31:41;;;;;;;22.33;11.45;;;6.40;99.90;;;;;;2585267;54;20030;31
2023/12/31 10:34:18;;;;;;;18.00;10.00;;;6.40;99.90;;;;;;2585469;54;20929;31
2023/12/31 10:36:51;;;;;;;21.20;11.30;;;6.50;99.90;;;;;;2585358;54;20031;31
2023/12/31 10:39:29;;;;;;;23.95;11.73;;;6.50;99.90;;;;;;2585478;54;20042;31
2023/12/31 10:42:03;;;;;;;23.13;12.05;;;6.50;99.90;;;;;;2584981;54;20894;31
2023/12/31 10:44:41;;;;;;;21.23;11.88;;;6.50;99.90;;;;;;2585241;54;20030;31
2023/12/31 10:47:15;;;;;;;21.13;10.40;;;6.50;99.90;;;;;;2603604;46;20034;31
2023/12/31 10:49:48;;;;;;;18.92;10.23;;;6.60;99.90;;;;;;2585548;54;21192;31
2023/12/31 10:52:24;;;;;;;19.52;10.10;;;6.60;99.90;;;;;;2603822;46;20027;31
2023/12/31 10:54:58;;;;;;;18.38;11.35;;;6.60;99.90;;;;;;2585167;54;20809;31
2023/12/31 10:57:31;;;;;;;19.90;11.67;;;6.60;99.90;;;;;;2585034;54;20033;31
2023/12/31 11:00:09;;;;;;;19.50;10.15;;;6.60;99.90;;;;;;2585318;54;20112;31
2023/12/31 11:02:42;;;;;;;22.33;10.68;;;6.50;99.90;;;;;;2584968;54;21075;31
2023/12/31 11:05:17;;;;;;;20.27;11.53;;;6.40;99.90;;;;;;2603539;46;20027;31
2023/12/31 11:07:52;;;;;;;17.30;9.40;;;6.40;99.90;;;;;;2585088;54;20023;31
2023/12/31 11:10:27;;;;;;;19.10;10.70;;;6.40;99.90;;;;;;2585170;54;20916;31
2023/12/31 11:13:02;;;;;;;19.42;9.98;;;6.40;99.90;;;;;;2603601;46;20894;31
2023/12/31 11:15:40;;;;;;;18.63;9.60;;;6.30;99.90;;;;;;2603797;46;20030;31
2023/12/31 11:18:42;;;;;;;19.30;10.00;;;6.30;99.90;;;;;;2585160;54;20923;31
2023/12/31 11:21:25;;;;;;;20.23;9.97;;;6.30;99.90;;;;;;2585341;54;20981;31
2023/12/31 11:24:03;;;;;;;22.23;10.05;;;6.30;99.90;;;;;;2701620;39;21062;31
2023/12/31 11:26:38;;;;;;;20.05;10.13;;;6.20;99.90;;;;;;2603343;46;20030;31
2023/12/31 11:29:15;;;;;;;24.70;10.90;;;6.20;99.90;;;;;;2603766;46;22465;31
2023/12/31 11:31:51;;;;;;;21.65;11.60;;;6.10;99.90;;;;;;2603851;46;20986;31
2023/12/31 11:34:24;;;;;;;25.13;11.70;;;6.20;99.90;;;;;;2584908;54;20926;31
2023/12/31 11:37:03;;;;;;;21.50;10.27;;;6.10;99.90;;;;;;2584535;54;20912;31
2023/12/31 11:39:36;;;;;;;21.33;9.50;;;6.10;99.90;;;;;;2584954;54;20780;31
2023/12/31 11:42:12;;;;;;;19.45;10.60;;;6.10;99.90;;;;;;2584865;54;20038;31
2023/12/31 11:44:47;;;;;;;20.90;9.98;;;6.00;99.90;;;;;;2603901;46;20034;31
2023/12/31 11:47:29;;;;;;;21.80;11.00;;;6.00;99.90;;;;;;2584737;54;20872;31
2023/12/31 11:50:23;;;;;;;22.75;11.68;;;5.90;99.90;;;;;;2584459;54;20262;31
2023/12/31 11:52:56;;;;;;;20.33;10.80;;;5.90;99.90;;;;;;2603713;46;20108;31
2023/12/31 11:55:29;;;;;;;20.07;11.57;;;5.90;99.90;;;;;;2603036;46;20034;31
2023/12/31 11:58:05;;;;;;;21.08;10.30;;;5.90;99.90;;;;;;2603354;46;20030;31
2023/12/31 12:00:40;;;;;;;18.70;10.00;;;5.80;99.90;;;;;;2585091;54;20817;31
2023/12/31 12:03:16;;;;;;;17.70;9.95;;;5.80;99.90;;;;;;2584710;54;20030;31
2023/12/31 12:05:52;;;;;;;20.20;10.45;;;5.80;99.90;;;;;;2603440;46;20310;31
2023/12/31 12:08:26;;;;;;;20.60;10.45;;;5.80;99.90;;;;;;2584912;54;20078;31
2023/12/31 12:10:59;;;;;;;18.00;10.30;;;5.90;99.90;;;;;;2584832;54;20057;31
2023/12/31 12:13:34;;;;;;;18.80;9.98;;;5.90;99.90;;;;;;2584781;54;20805;31
2023/12/31 12:16:09;;;;;;;21.23;10.25;;;5.90;99.90;;;;;;2585034;54;20030;31
2023/12/31 12:18:49;;;;;;;21.50;9.65;;;5.90;99.90;;;;;;2584936;54;20674;31
2023/12/31 12:21:24;;;;;;;20.20;10.93;;;5.80;99.90;;;;;;2603366;47;20037;31
2023/12/31 12:23:59;;;;;;;18.50;10.40;;;5.90;99.90;;;;;;2584841;54;20041;31
2023/12/31 12:26:32;;;;;;;20.60;10.43;;;5.90;99.90;;;;;;2585074;54;20971;31
2023/12/31 12:29:07;;;;;;;21.92;10.68;;;5.90;99.90;;;;;;2584859;54;20053;31
2023/12/31 12:31:40;;;;;;;19.90;10.55;;;5.90;99.90;;;;;;2584919;54;20942;31
2023/12/31 12:34:16;;;;;;;24.65;10.90;;;5.90;99.90;;;;;;2584890;54;20026;31
2023/12/31 12:36:52;;;;;;;22.20;8.90;;;5.90;99.90;;;;;;2584853;54;20061;31
2023/12/31 12:39:25;;;;;;;17.50;9.13;;;5.90;99.90;;;;;;2603026;47;20022;31
2023/12/31 12:41:59;;;;;;;20.95;9.55;;;6.00;99.90;;;;;;2584784;54;20268;31
2023/12/31 12:44:35;;;;;;;16.60;9.10;;;6.00;99.90;;;;;;2584484;54;20052;31
2023/12/31 12:47:11;;;;;;;21.10;9.27;;;6.00;99.90;;;;;;2584306;54;20772;31
2023/12/31 12:49:47;;;;;;;17.80;9.20;;;6.00;99.90;;;;;;2585498;54;20976;31
2023/12/31 12:52:22;;;;;;;20.00;9.43;;;6.10;99.90;;;;;;2585761;54;20304;31
2023/12/31 12:54:57;;;;;;;20.10;10.10;;;6.10;99.90;;;;;;2585676;54;20853;31
2023/12/31 12:57:32;;;;;;;17.40;9.20;;;6.10;99.90;;;;;;2585375;54;20820;31
2023/12/31 13:00:06;;;;;;;17.42;9.02;;;6.10;99.90;;;;;;2585558;54;20759;31
2023/12/31 13:02:40;;;;;;;18.48;9.63;;;6.10;99.90;;;;;;2585567;54;20802;31
2023/12/31 13:05:16;;;;;;;21.70;10.50;;;6.10;99.90;;;;;;2585355;54;20947;31
2023/12/31 13:07:52;;;;;;;24.35;11.70;;;6.10;99.90;;;;;;2585495;54;20749;31
2023/12/31 13:10:24;;;;;;;25.50;12.20;;;6.10;99.90;;;;;;2585417;54;20909;31
2023/12/31 13:12:59;;;;;;;17.60;10.50;;;6.10;99.90;;;;;;2585534;54;20026;31
2023/12/31 13:15:37;;;;;;;21.50;10.35;;;6.10;99.90;;;;;;2585520;54;20053;31
2023/12/31 13:18:13;;;;;;;20.57;9.17;;;6.10;99.90;;;;;;2585579;54;20078;31
2023/12/31 13:20:49;;;;;;;20.30;10.48;;;6.20;99.90;;;;;;2585377;54;20924;31
2023/12/31 13:23:22;;;;;;;20.17;10.37;;;6.20;99.90;;;;;;2585500;54;20033;31
2023/12/31 13:25:55;;;;;;;20.20;9.57;;;6.20;99.90;;;;;;2585728;54;20255;31
2023/12/31 13:28:30;;;;;;;32.50;14.97;;;6.20;99.90;;;;;;2585336;54;20938;31
2023/12/31 13:31:05;;;;;;;39.80;19.97;;;6.20;99.90;;;;;;2585426;54;20937;31
2023/12/31 13:33:42;;;;;;;25.20;14.25;;;6.30;99.90;;;;;;2603533;46;20030;31
2023/12/31 13:36:18;;;;;;;23.00;10.50;;;6.30;99.90;;;;;;2585437;54;20031;31
2023/12/31 13:38:54;;;;;;;22.90;10.98;;;6.30;99.90;;;;;;2683593;39;21101;31
2023/12/31 13:41:30;;;;;;;24.35;10.82;;;6.30;99.90;;;;;;2683213;39;21483;31